• Join FlightAware (Why Join?)
  • Login
  • US Flag 
03:07PM EDT


 

Airport Tracker/Info


-or-


 

Live Flight TrackerFlight Track Log ✈ N637P ✈ 05-May-2012 ✈ KBRO - KAUS

Flight Track Log - Related Links

Times and Time Zones

All times are in EDT time to prevent confusion due to time zone crossing. See the N637P flight status page for this flight to view local times or setup timezone preferences in your user account.

Time Position Orientation Groundspeed Altitude Reporting Facility
EDT Latitude Longitude Course Direction KTS MPH feet Rate Location/Type
07:25PM 25.9253 -97.4064 347° North 114 131 1,000  Level Houston Center
07:26PM 25.9706 -97.4181 313° West 132 152 1,700 480 Climbing Houston Center
07:27PM 25.9964 -97.4492 340° North 133 153 2,200 480 Climbing Houston Center
07:28PM 26.0292 -97.4625 358° North 130 150 2,700 420 Climbing Houston Center
07:29PM 26.0647 -97.4642 350° North 134 154 3,100 360 Climbing Houston Center
07:30PM 26.1000 -97.4708 358° North 131 151 3,500 300 Climbing Houston Center
07:31PM 26.1417 -97.4728 North 134 154 3,800 360 Climbing Houston Center
07:32PM 26.1772 -97.4700 North 126 145 4,300 360 Climbing Houston Center
07:33PM 26.2106 -97.4694 North 123 142 4,600 480 Climbing Houston Center
07:34PM 26.2439 -97.4689 North 121 139 5,300 660 Climbing Houston Center
07:35PM 26.2756 -97.4636 13° North 113 130 6,000 720 Climbing Houston Center
07:36PM 26.3050 -97.4558 North 114 131 6,800 660 Climbing Houston Center
07:37PM 26.3386 -97.4553 North 113 130 7,400 540 Climbing Houston Center
07:38PM 26.3719 -97.4544 360° North 113 130 8,000 300 Climbing Houston Center
07:39PM 26.4094 -97.4542 North 146 168 8,100  Climbing Houston Center
07:40PM 26.4514 -97.4494 360° North 157 181 8,100 -60 Level Houston Center
07:41PM 26.4972 -97.4494 North 161 185 8,000 -60 Descending Houston Center
07:42PM 26.5414 -97.4447 North 161 185 8,000  Level Houston Center
07:43PM 26.5875 -97.4425 357° North 163 188 8,000  Level Houston Center
07:44PM 26.6311 -97.4447 North 161 185 8,100  Climbing Houston Center
07:45PM 26.6772 -97.4400 360° North 161 185 8,000 -60 Descending Houston Center
07:46PM 26.7231 -97.4403 355° North 160 184 8,000  Level Houston Center
07:47PM 26.7689 -97.4450 North 165 190 8,100  Climbing Houston Center
07:48PM 26.8150 -97.4425 North 161 185 8,000 -60 Descending Houston Center
07:49PM 26.8589 -97.4381 360° North 161 185 8,000  Level Houston Center
07:50PM 26.9047 -97.4381 358° North 163 188 8,000  Level Houston Center
07:51PM 26.9506 -97.4403 357° North 163 188 8,100  Climbing Houston Center
07:52PM 26.9922 -97.4425 North 160 184 8,100  Level Houston Center
07:53PM 27.0361 -97.4400 357° North 157 181 8,100 -60 Level Houston Center
07:55PM 27.0778 -97.4422 357° North 155 178 8,000 -60 Descending Houston Center
07:56PM 27.1258 -97.4447 360° North 159 183 8,000  Level Houston Center
07:57PM 27.1675 -97.4447 360° North 160 184 8,000  Level Houston Center
07:58PM 27.2136 -97.4447 North 156 180 8,000  Level Houston Center
07:59PM 27.2553 -97.4422 357° North 156 180 8,000  Level Houston Center
08:00PM 27.2992 -97.4444 352° North 154 177 8,000  Level Houston Center
08:01PM 27.3447 -97.4517 360° North 154 177 8,000  Level Houston Center
08:02PM 27.3844 -97.4514 355° North 153 176 8,000  Level Houston Center
08:03PM 27.4300 -97.4561 346° North 154 177 8,000  Level Houston Center
08:04PM 27.4714 -97.4678 344° North 156 180 8,000  Level Houston Center
08:05PM 27.5147 -97.4817 360° North 155 178 8,000  Level Houston Center
08:06PM 27.5583 -97.4817 North 157 181 8,000  Level Houston Center
08:07PM 27.6022 -97.4794 355° North 157 181 8,000  Level Houston Center
08:08PM 27.6439 -97.4839 North 157 181 8,100  Climbing Houston Center
08:09PM 27.6919 -97.4817 354° North 158 182 8,100 -60 Level Houston Center
08:10PM 27.7378 -97.4867 354° North 159 183 8,000 -60 Descending Houston Center
08:11PM 27.7772 -97.4911 North 156 180 8,000  Level Houston Center
08:12PM 27.8253 -97.4889 350° North 159 183 8,000  Level Houston Center
08:13PM 27.8708 -97.4983 357° North 160 184 8,000  Level Houston Center
08:14PM 27.9144 -97.5008 360° North 163 188 8,000  Level Houston Center
08:15PM 27.9625 -97.5008 357° North 162 186 8,000  Level Houston Center
08:16PM 28.0064 -97.5033 350° North 163 188 8,000  Level Houston Center
08:17PM 28.0539 -97.5131 353° North 163 188 8,100  Climbing Houston Center
08:18PM 28.1119 -97.5208 North 192 221 8,100  Level Houston Center
08:19PM 28.1603 -97.5164 357° North 187 215 8,100 -60 Level Houston Center
08:20PM 28.2039 -97.5189 358° North 167 192 8,000 -60 Descending Houston Center
08:21PM 28.2497 -97.5211 357° North 162 186 8,000  Level Houston Center
08:22PM 28.2933 -97.5236 352° North 162 186 8,000  Level Houston Center
08:23PM 28.3411 -97.5308 352° North 157 181 8,000  Level Houston Center
08:24PM 28.3847 -97.5381 360° North 157 181 8,000  Level Houston Center
08:25PM 28.4306 -97.5383 360° North 157 181 8,100  Climbing Houston Center
08:26PM 28.4744 -97.5383 357° North 157 181 8,100 -60 Level Houston Center
08:27PM 28.5222 -97.5408 357° North 157 181 8,000 -60 Descending Houston Center
08:28PM 28.5681 -97.5433 355° North 157 181 8,000  Level Houston Center
08:29PM 28.6139 -97.5483 357° North 157 181 8,000  Level Houston Center
08:30PM 28.6617 -97.5508 357° North 157 181 8,000  Level Houston Center
08:31PM 28.7094 -97.5536 357° North 157 181 8,100  Climbing Houston Center
08:32PM 28.7533 -97.5561 357° North 157 181 8,100  Level Houston Center
08:33PM 28.8011 -97.5586 354° North 157 181 8,100  Level Houston Center
08:34PM 28.8406 -97.5633 355° North 166 191 8,100  Level Houston Center
08:35PM 28.8883 -97.5683 352° North 166 191 8,100  Level Houston Center
08:36PM 28.9339 -97.5756 357° North 166 191 8,100  Level Houston Center
08:37PM 28.9797 -97.5781 357° North 160 184 8,100 -60 Level Houston Center
08:38PM 29.0297 -97.5811 355° North 160 184 8,000 -60 Descending Houston Center
08:39PM 29.0756 -97.5858 355° North 160 184 8,000  Level Houston Center
08:40PM 29.1211 -97.5908 357° North 160 184 8,100  Climbing Houston Center
08:41PM 29.1692 -97.5936 355° North 160 184 8,100  Level Houston Center
08:42PM 29.2125 -97.5983 359° North 160 184 8,100  Level Houston Center
08:43PM 29.2628 -97.5989 355° North 160 184 8,100  Level Houston Center
08:44PM 29.3106 -97.6039 359° North 160 184 8,100  Level Houston Center
08:45PM 29.3583 -97.6044 357° North 160 184 8,100 -60 Level Houston Center
08:46PM 29.4083 -97.6072 North 160 184 8,000 -60 Descending Houston Center
08:47PM 29.4564 -97.6053 357° North 165 190 8,000  Level Houston Center
08:48PM 29.5044 -97.6078 352° North 165 190 8,000  Level Houston Center
08:49PM 29.5519 -97.6153 355° North 165 190 8,000  Level Houston Center
08:50PM 29.5978 -97.6203 355° North 165 190 8,100  Climbing Houston Center
08:51PM 29.6475 -97.6256 352° North 165 190 8,100  Level Houston Center
08:52PM 29.6953 -97.6331 North 165 190 8,100  Level Houston Center
08:53PM 29.7411 -97.6311 12° North 165 190 8,100  Level Houston Center
08:54PM 29.7897 -97.6194 North 160 184 8,100  Level Houston Center
08:55PM 29.8378 -97.6175 North 160 184 8,100 -240 Level Houston Center
08:56PM 29.8881 -97.6131 North 173 199 7,700 -480 Descending Houston Center
08:57PM 29.9425 -97.6092 12° North 184 212 7,200 -540 Descending Houston Center
08:58PM 29.9889 -97.5975 343° North 184 212 6,700 -540 Descending Houston Center
09:05PM 30.1833 -97.6667 346° North  Level FlightAware Approximate
09:06PM 30.2240 -97.6784 166° South  Level Estimated
09:07PM 30.1833 -97.6667 360° North  Level Estimated
09:08PM 30.1833 -97.6667 346° North  Level FlightAware Approximate
09:09PM 30.2240 -97.6784 166° South  Level Estimated
09:10PM 30.1833 -97.6667 346° North  Level FlightAware Approximate
09:11PM 30.2240 -97.6784 166° South  Level Estimated
09:12PM 30.1833 -97.6667 346° North  Level FlightAware Approximate
09:13PM 30.2240 -97.6784 346° North  Level Estimated